• Join FlightAware (Why Join?)
  • Login
  • US Flag 
03:39AM EDT


 

Airport Tracker/Info


-or-


 

Live Flight TrackerFlight Track Log ✈ GLA182 ✈ 29-Apr-2013 ✈ KMSP - KATY

Flight Track Log - Related Links

Times and Time Zones

All times are in EDT time to prevent confusion due to time zone crossing. See the GLA182 flight status page for this flight to view local times or setup timezone preferences in your user account.

Time Position Orientation Groundspeed Altitude Reporting Facility
EDT Latitude Longitude Course Direction KTS MPH feet Rate Location/Type
08:39AM 44.9000 -93.2333 301° West 161 185 1,900  Level Minneapolis TRACON
08:40AM 44.9242 -93.2906 301° West 174 200 3,600 1,560 Climbing Minneapolis Center
08:41AM 44.9481 -93.3506 299° West 182 209 5,200 1,620 Climbing Minneapolis Center
08:42AM 44.9586 -93.4233 282° West 188 216 7,000 1,860 Climbing Minneapolis Center
08:43AM 44.9756 -93.5100 285° West 190 219 9,100 1,800 Climbing Minneapolis Center
08:44AM 44.9814 -93.5861 276° West 195 224 10,700 1,260 Climbing Minneapolis Center
08:45AM 44.9867 -93.6653 275° West 202 232 11,800 600 Climbing Minneapolis Center
08:46AM 44.9892 -93.7531 272° West 227 261 12,000 120 Climbing Minneapolis Center
08:47AM 44.9908 -93.8489 271° West 244 281 12,100 480 Climbing Minneapolis Center
08:48AM 44.9947 -93.9447 273° West 242 278 13,000 1,020 Climbing Minneapolis Center
08:49AM 44.9997 -94.0247 275° West 206 237 14,300 1,140 Climbing Minneapolis Center
08:50AM 45.0069 -94.1186 276° West 204 235 15,400 780 Climbing Minneapolis Center
08:51AM 45.0128 -94.2006 276° West 212 244 15,900 240 Climbing Minneapolis Center
08:52AM 45.0131 -94.2903 270° West 230 265 16,000  Climbing Minneapolis Center
08:53AM 45.0111 -94.3833 268° West 239 275 16,000  Level Minneapolis Center
08:54AM 45.0100 -94.4767 269° West 239 275 16,000 -60 Level Minneapolis Center
08:55AM 45.0103 -94.5711 270° West 241 277 15,900  Descending Minneapolis Center
08:56AM 45.0081 -94.6764 268° West 239 275 16,000  Climbing Minneapolis Center
08:57AM 45.0047 -94.7708 267° West 241 277 16,000  Level Minneapolis Center
08:58AM 44.9983 -94.8653 265° West 242 278 16,000  Level Minneapolis Center
08:59AM 44.9892 -94.9583 262° West 242 278 16,000  Level Minneapolis Center
09:00AM 44.9811 -95.0525 263° West 242 278 16,000  Level Minneapolis Center
09:01AM 44.9767 -95.1472 266° West 243 280 16,000  Level Minneapolis Center
09:02AM 44.9708 -95.2597 266° West 240 276 16,000  Level Minneapolis Center
09:03AM 44.9683 -95.3544 268° West 241 277 16,000  Level Minneapolis Center
09:04AM 44.9669 -95.4500 269° West 243 280 16,000  Level Minneapolis Center
09:05AM 44.9672 -95.5450 270° West 243 280 16,000  Level Minneapolis Center
09:06AM 44.9669 -95.6394 270° West 243 280 16,000 -60 Level Minneapolis Center
09:07AM 44.9669 -95.7356 270° West 244 281 15,900 -120 Descending Minneapolis Center
09:08AM 44.9689 -95.8314 272° West 245 282 15,800 -600 Descending Minneapolis Center
09:09AM 44.9689 -95.9078 270° West 245 282 14,700 -1,680 Descending Minneapolis Center
09:10AM 44.9558 -96.0386 262° West 242 278 12,500 -1,740 Descending Minneapolis Center
09:11AM 44.9397 -96.1283 256° West 239 275 11,200 -1,260 Descending Minneapolis Center
09:12AM 44.9281 -96.2211 260° West 240 276 10,000 -1,500 Descending Minneapolis Center
09:13AM 44.9158 -96.3103 259° West 236 272 8,200 -1,320 Descending Minneapolis Center
09:14AM 44.9183 -96.3997 272° West 232 267 7,400 -780 Descending Minneapolis Center
09:15AM 44.9222 -96.4850 274° West 226 260 6,700 -780 Descending Minneapolis Center
09:16AM 44.9261 -96.5719 274° West 224 258 5,900 -540 Descending Minneapolis Center
09:18AM 44.9256 -96.6744 270° West 221 254 5,600 -300 Descending Minneapolis Center
09:19AM 44.9133 -96.7622 259° West 224 258 5,400 -240 Descending Minneapolis Center
09:20AM 44.9022 -96.8500 260° West 226 260 5,200 -480 Descending Minneapolis Center
09:21AM 44.8900 -96.9389 259° West 228 262 4,500 -840 Descending Minneapolis Center
09:22AM 44.8808 -97.0211 261° West 225 259 3,600 -840 Descending Minneapolis Center
09:23AM 44.8792 -97.0900 268° West 197 227 2,900 -780 Descending Minneapolis Center
09:24AM 44.8964 -97.1453 294° West 209 241 2,100 -840 Descending Minneapolis Center